createdAt,value
2023-02-14T00:00:24.074Z,102776.59
2023-02-14T00:02:50.541Z,102778.84
2023-02-14T00:05:16.957Z,102778.38
2023-02-14T00:07:43.446Z,102776.78
2023-02-14T00:10:10.135Z,102770.66
2023-02-14T00:12:36.500Z,102768.91
2023-02-14T00:15:21.482Z,102776.56
2023-02-14T00:17:59.554Z,102788.22
2023-02-14T00:20:27.655Z,102782.25
2023-02-14T00:22:54.138Z,102781.00
2023-02-14T00:25:20.586Z,102781.13
2023-02-14T00:27:47.075Z,102774.47
2023-02-14T00:30:14.213Z,102779.94
2023-02-14T00:32:41.258Z,102779.94
2023-02-14T00:35:09.398Z,102779.16
2023-02-14T00:37:36.486Z,102783.53
2023-02-14T00:40:03.074Z,102782.59
2023-02-14T00:42:29.471Z,102785.09
2023-02-14T00:44:55.913Z,102784.25
2023-02-14T00:47:22.438Z,102784.59
2023-02-14T00:49:48.879Z,102783.56
2023-02-14T00:52:15.406Z,102782.66
2023-02-14T00:54:41.835Z,102782.81
2023-02-14T00:57:08.219Z,102779.75
2023-02-14T00:59:34.648Z,102775.22
2023-02-14T01:02:01.071Z,102787.75
2023-02-14T01:04:27.510Z,102785.78
2023-02-14T01:06:53.888Z,102788.63
2023-02-14T01:09:20.248Z,102784.94
2023-02-14T01:11:46.677Z,102784.28
2023-02-14T01:14:13.045Z,102788.25
2023-02-14T01:16:39.849Z,102791.72
2023-02-14T01:19:06.271Z,102789.59
2023-02-14T01:21:33.776Z,102794.22
2023-02-14T01:24:03.090Z,102791.84
2023-02-14T01:26:29.901Z,102790.59
2023-02-14T01:28:56.687Z,102792.69
2023-02-14T01:31:25.961Z,102795.78
2023-02-14T01:33:53.707Z,102797.66
2023-02-14T01:36:31.725Z,102797.75
2023-02-14T01:39:02.114Z,102798.31
2023-02-14T01:41:32.051Z,102791.41
2023-02-14T01:44:04.550Z,102787.81
2023-02-14T01:46:34.362Z,102784.03
2023-02-14T01:49:29.999Z,102793.97
2023-02-14T01:52:03.862Z,102797.75
2023-02-14T01:54:32.198Z,102793.50
2023-02-14T01:57:01.451Z,102784.31
2023-02-14T01:59:32.017Z,102787.06
2023-02-14T02:01:58.475Z,102778.84
2023-02-14T02:04:38.170Z,102773.09
2023-02-14T02:07:10.512Z,102770.75
2023-02-14T02:09:42.433Z,102778.47
2023-02-14T02:12:08.877Z,102770.75
2023-02-14T02:14:35.424Z,102767.31
2023-02-14T02:17:17.938Z,102766.91
2023-02-14T02:20:03.334Z,102762.59
2023-02-14T02:22:32.562Z,102765.56
2023-02-14T02:25:29.383Z,102760.84
2023-02-14T02:28:16.535Z,102757.22
2023-02-14T02:30:46.088Z,102753.28
2023-02-14T02:33:43.450Z,102755.09
2023-02-14T02:36:28.330Z,102747.72
2023-02-14T02:39:00.314Z,102755.09
2023-02-14T02:41:49.598Z,102755.63
2023-02-14T02:44:27.529Z,102757.97
2023-02-14T02:47:17.064Z,102758.00
2023-02-14T02:50:26.875Z,102754.75
2023-02-14T02:53:08.174Z,102753.25
2023-02-14T02:56:01.425Z,102750.75
2023-02-14T02:58:34.424Z,102746.56
2023-02-14T03:01:07.472Z,102752.22
2023-02-14T03:03:53.651Z,102749.75
2023-02-14T03:06:20.058Z,102743.22
2023-02-14T03:08:46.471Z,102753.34
2023-02-14T03:11:13.194Z,102744.94
2023-02-14T03:13:44.961Z,102747.00
2023-02-14T03:16:25.828Z,102750.38
2023-02-14T03:19:32.195Z,102744.56
2023-02-14T03:22:22.470Z,102741.22
2023-02-14T03:24:56.529Z,102744.84
2023-02-14T03:27:30.530Z,102748.50
2023-02-14T03:30:15.726Z,102746.38
2023-02-14T03:32:46.504Z,102743.34
2023-02-14T03:35:20.314Z,102740.81
2023-02-14T03:37:48.531Z,102739.19
2023-02-14T03:40:22.832Z,102737.91
2023-02-14T03:42:53.289Z,102735.56
2023-02-14T03:45:44.268Z,102735.63
2023-02-14T03:48:13.194Z,102743.16
2023-02-14T03:50:41.699Z,102739.72
2023-02-14T03:53:10.227Z,102737.44
2023-02-14T03:55:41.770Z,102736.38
2023-02-14T03:58:22.530Z,102737.59
2023-02-14T04:00:50.695Z,102732.75
2023-02-14T04:03:18.277Z,102731.97
2023-02-14T04:05:46.631Z,102731.34
2023-02-14T04:08:20.930Z,102737.06
2023-02-14T04:10:47.330Z,102729.44
2023-02-14T04:13:13.707Z,102729.59
2023-02-14T04:15:40.118Z,102728.41
2023-02-14T04:18:25.188Z,102735.59
2023-02-14T04:20:51.788Z,102734.09
2023-02-14T04:23:18.168Z,102724.38
2023-02-14T04:25:45.574Z,102722.09
2023-02-14T04:28:12.537Z,102732.88
2023-02-14T04:30:39.070Z,102730.75
2023-02-14T04:33:05.572Z,102731.19
2023-02-14T04:35:31.948Z,102716.25
2023-02-14T04:37:58.344Z,102716.56
2023-02-14T04:40:24.831Z,102717.84
2023-02-14T04:42:51.217Z,102718.25
2023-02-14T04:45:17.610Z,102709.66
2023-02-14T04:47:43.975Z,102714.13
2023-02-14T04:50:10.392Z,102709.75
2023-02-14T04:52:36.818Z,102703.03
2023-02-14T04:55:04.347Z,102706.72
2023-02-14T04:57:31.214Z,102697.97
2023-02-14T04:59:57.601Z,102701.72
2023-02-14T05:02:24.098Z,102697.31
2023-02-14T05:04:50.599Z,102689.84
2023-02-14T05:07:17.362Z,102686.91
2023-02-14T05:09:43.727Z,102688.34
2023-02-14T05:12:10.243Z,102684.47
2023-02-14T05:14:36.605Z,102676.97
2023-02-14T05:17:03.079Z,102684.41
2023-02-14T05:19:29.437Z,102680.53
2023-02-14T05:21:55.801Z,102685.63
2023-02-14T05:24:22.211Z,102682.88
2023-02-14T05:26:48.605Z,102677.97
2023-02-14T05:29:14.990Z,102677.06
2023-02-14T05:31:41.524Z,102667.72
2023-02-14T05:34:08.017Z,102664.28
2023-02-14T05:36:34.455Z,102669.81
2023-02-14T05:39:00.893Z,102670.59
2023-02-14T05:41:27.337Z,102670.38
2023-02-14T05:43:53.716Z,102665.50
2023-02-14T05:46:20.124Z,102675.69
2023-02-14T05:48:46.517Z,102673.75
2023-02-14T05:51:13.214Z,102666.50
2023-02-14T05:53:39.585Z,102667.13
2023-02-14T05:56:06.196Z,102671.38
2023-02-14T05:58:32.898Z,102675.53
2023-02-14T06:01:00.073Z,102677.84
2023-02-14T06:03:27.016Z,102674.34
2023-02-14T06:05:53.425Z,102678.50
2023-02-14T06:08:19.844Z,102676.13
2023-02-14T06:10:46.315Z,102679.78
2023-02-14T06:13:12.720Z,102686.22
2023-02-14T06:15:39.278Z,102684.47
2023-02-14T06:18:06.142Z,102687.75
2023-02-14T06:20:32.719Z,102688.06
2023-02-14T06:22:59.254Z,102694.34
2023-02-14T06:25:26.105Z,102702.97
2023-02-14T06:27:56.878Z,102703.16
2023-02-14T06:30:23.643Z,102700.41
2023-02-14T06:32:50.326Z,102703.16
2023-02-14T06:35:17.093Z,102706.31
2023-02-14T06:37:45.168Z,102716.34
2023-02-14T06:40:12.748Z,102715.13
2023-02-14T06:42:39.163Z,102711.88
2023-02-14T06:45:06.152Z,102715.13
2023-02-14T06:47:34.875Z,102724.06
2023-02-14T06:50:01.594Z,102719.91
2023-02-14T06:52:27.957Z,102715.72
2023-02-14T06:54:54.572Z,102720.06
2023-02-14T06:57:20.983Z,102723.53
2023-02-14T06:59:47.376Z,102722.63
2023-02-14T07:02:13.813Z,102718.38
2023-02-14T07:04:40.214Z,102722.53
2023-02-14T07:07:06.616Z,102721.53
2023-02-14T07:09:33.011Z,102723.91
2023-02-14T07:11:59.403Z,102732.75
2023-02-14T07:14:25.922Z,102729.50
2023-02-14T07:16:52.301Z,102719.19
2023-02-14T07:19:19.189Z,102737.75
2023-02-14T07:21:45.559Z,102727.50
2023-02-14T07:24:11.972Z,102730.25
2023-02-14T07:26:38.326Z,102719.41
2023-02-14T07:29:05.130Z,102732.38
2023-02-14T07:31:31.602Z,102730.31
2023-02-14T07:34:00.917Z,102729.34
2023-02-14T07:36:27.592Z,102738.03
2023-02-14T07:38:55.991Z,102739.88
2023-02-14T07:41:22.690Z,102726.22
2023-02-14T07:43:49.061Z,102725.47
2023-02-14T07:46:17.331Z,102720.94
2023-02-14T07:48:43.844Z,102719.44
2023-02-14T07:51:10.219Z,102726.88
2023-02-14T07:53:36.634Z,102719.47
2023-02-14T07:56:03.004Z,102720.66
2023-02-14T07:58:29.381Z,102716.03
2023-02-14T08:00:55.789Z,102708.78
2023-02-14T08:03:22.170Z,102711.41
2023-02-14T08:05:56.909Z,102712.75
2023-02-14T08:08:27.958Z,102712.69
2023-02-14T08:10:54.438Z,102712.41
2023-02-14T08:13:20.894Z,102707.25
2023-02-14T08:16:05.731Z,102710.00
2023-02-14T08:18:33.441Z,102715.38
2023-02-14T08:21:00.258Z,102718.28
2023-02-14T08:23:27.035Z,102723.66
2023-02-14T08:25:53.541Z,102710.56
2023-02-14T08:28:21.826Z,102715.53
2023-02-14T08:30:48.520Z,102716.53
2023-02-14T08:33:14.963Z,102713.09
2023-02-14T08:35:41.346Z,102716.75
2023-02-14T08:38:07.989Z,102714.50
2023-02-14T08:40:35.250Z,102721.53
2023-02-14T08:43:01.694Z,102711.53
2023-02-14T08:45:28.099Z,102709.41
2023-02-14T08:47:54.539Z,102703.00
2023-02-14T08:50:21.060Z,102709.50
2023-02-14T08:52:47.532Z,102702.06
2023-02-14T08:55:14.235Z,102696.84
2023-02-14T08:57:40.788Z,102702.47
2023-02-14T09:00:09.790Z,102701.47
2023-02-14T09:02:36.408Z,102697.13
2023-02-14T09:05:02.846Z,102703.38
2023-02-14T09:07:29.282Z,102696.94
2023-02-14T09:09:55.735Z,102696.84
2023-02-14T09:12:22.166Z,102695.00
2023-02-14T09:14:48.537Z,102700.66
2023-02-14T09:17:15.695Z,102696.13
2023-02-14T09:19:42.442Z,102705.69
2023-02-14T09:22:10.571Z,102694.19
2023-02-14T09:24:38.969Z,102695.38
2023-02-14T09:27:05.388Z,102688.59
2023-02-14T09:29:32.165Z,102683.56
2023-02-14T09:32:00.096Z,102685.31
2023-02-14T09:34:27.771Z,102680.59
2023-02-14T09:37:12.759Z,102675.63
2023-02-14T09:39:39.294Z,102665.78
2023-02-14T09:42:34.193Z,102665.59
2023-02-14T09:45:05.420Z,102660.69
2023-02-14T09:47:57.146Z,102660.53
2023-02-14T09:50:44.864Z,102659.44
2023-02-14T09:53:25.866Z,102648.59
2023-02-14T09:55:59.739Z,102647.88
2023-02-14T09:58:36.639Z,102644.44
2023-02-14T10:01:15.593Z,102637.53
2023-02-14T10:03:52.363Z,102636.84
2023-02-14T10:06:49.044Z,102636.13
2023-02-14T10:09:40.213Z,102632.63
2023-02-14T10:12:13.090Z,102623.97
2023-02-14T10:14:40.883Z,102622.50
2023-02-14T10:17:35.896Z,102619.72
2023-02-14T10:20:05.691Z,102613.03
2023-02-14T10:22:45.817Z,102611.25
2023-02-14T10:25:32.511Z,102612.25
2023-02-14T10:28:01.509Z,102618.78
2023-02-14T10:30:37.070Z,102615.94
2023-02-14T10:33:16.423Z,102613.19
2023-02-14T10:36:18.214Z,102612.47
2023-02-14T10:38:59.174Z,102602.34
2023-02-14T10:41:53.145Z,102600.97
2023-02-14T10:44:22.408Z,102601.50
2023-02-14T10:47:01.854Z,102600.34
2023-02-14T10:49:49.734Z,102595.78
2023-02-14T10:52:31.741Z,102596.84
2023-02-14T10:55:00.594Z,102585.44
2023-02-14T10:57:34.219Z,102589.28
2023-02-14T11:00:02.471Z,102588.28
2023-02-14T11:02:37.807Z,102578.19
2023-02-14T11:05:04.971Z,102575.94
2023-02-14T11:07:31.407Z,102574.63
2023-02-14T11:09:57.793Z,102572.47
2023-02-14T11:12:39.437Z,102573.97
2023-02-14T11:15:16.342Z,102564.38
2023-02-14T11:17:42.758Z,102561.38
2023-02-14T11:20:30.193Z,102551.09
2023-02-14T11:22:57.152Z,102536.81
2023-02-14T11:25:29.115Z,102521.56
2023-02-14T11:28:01.680Z,102519.69
2023-02-14T11:30:31.664Z,102521.81
2023-02-14T11:32:58.140Z,102521.50
2023-02-14T11:35:30.123Z,102512.16
2023-02-14T11:37:57.417Z,102516.81
2023-02-14T11:40:32.181Z,102518.09
2023-02-14T11:43:19.403Z,102510.81
2023-02-14T11:45:47.589Z,102512.25
2023-02-14T11:48:27.856Z,102512.69
2023-02-14T11:51:14.246Z,102503.97
2023-02-14T11:53:43.345Z,102501.56
2023-02-14T11:56:09.805Z,102493.84
2023-02-14T11:58:39.808Z,102493.94
2023-02-14T12:01:06.704Z,102492.03
2023-02-14T12:03:43.726Z,102487.34
2023-02-14T12:06:10.243Z,102487.28
2023-02-14T12:08:41.825Z,102485.22
2023-02-14T12:11:22.652Z,102481.16
2023-02-14T12:13:57.592Z,102471.44
2023-02-14T12:16:48.819Z,102473.19
2023-02-14T12:19:20.954Z,102463.00
2023-02-14T12:21:48.520Z,102473.97
2023-02-14T12:24:17.879Z,102462.75
2023-02-14T12:27:07.068Z,102458.53
2023-02-14T12:29:39.042Z,102453.84
2023-02-14T12:32:21.340Z,102451.56
2023-02-14T12:34:47.848Z,102456.69
2023-02-14T12:37:23.314Z,102449.00
2023-02-14T12:40:25.790Z,102448.09
2023-02-14T12:42:57.993Z,102445.63
2023-02-14T12:45:26.188Z,102445.75
2023-02-14T12:48:01.594Z,102441.06
2023-02-14T12:50:55.414Z,102439.66
2023-02-14T12:53:30.996Z,102427.16
2023-02-14T12:56:19.023Z,102428.25
2023-02-14T12:58:54.588Z,102429.31
2023-02-14T13:01:32.810Z,102420.63
2023-02-14T13:04:27.990Z,102418.34
2023-02-14T13:06:57.960Z,102410.88
2023-02-14T13:09:33.593Z,102407.91
2023-02-14T13:12:17.142Z,102405.22
2023-02-14T13:15:17.241Z,102406.28
2023-02-14T13:17:51.251Z,102398.19
2023-02-14T13:20:20.589Z,102403.50
2023-02-14T13:22:48.201Z,102396.91
2023-02-14T13:25:31.593Z,102389.03
2023-02-14T13:28:04.398Z,102382.91
2023-02-14T13:30:32.627Z,102375.97
2023-02-14T13:33:03.340Z,102380.28
2023-02-14T13:35:30.421Z,102368.97
2023-02-14T13:38:16.161Z,102374.44
2023-02-14T13:40:42.889Z,102376.00
2023-02-14T13:43:09.526Z,102372.25
2023-02-14T13:45:37.155Z,102361.34
2023-02-14T13:48:22.061Z,102359.34
2023-02-14T13:50:55.793Z,102363.97
2023-02-14T13:53:32.871Z,102347.47
2023-02-14T13:55:59.992Z,102346.81
2023-02-14T13:58:27.409Z,102349.63
2023-02-14T14:00:54.564Z,102344.16
2023-02-14T14:03:30.043Z,102343.09
2023-02-14T14:06:04.688Z,102334.84
2023-02-14T14:08:31.963Z,102328.16
2023-02-14T14:11:11.782Z,102329.66
2023-02-14T14:13:41.171Z,102300.53
2023-02-14T14:16:28.869Z,102296.75
2023-02-14T14:19:30.253Z,102301.13
2023-02-14T14:22:08.520Z,102313.91
2023-02-14T14:24:39.472Z,102300.06
2023-02-14T14:27:18.062Z,102294.22
2023-02-14T14:29:50.627Z,102274.53
2023-02-14T14:32:37.741Z,102281.34
2023-02-14T14:35:15.734Z,102283.75
2023-02-14T14:37:47.985Z,102277.88
2023-02-14T14:40:24.806Z,102280.47
2023-02-14T14:42:51.857Z,102264.63
2023-02-14T14:45:27.021Z,102267.59
2023-02-14T14:47:56.636Z,102284.69
2023-02-14T14:50:31.710Z,102280.50
2023-02-14T14:53:02.855Z,102293.72
2023-02-14T14:55:34.241Z,102291.22
2023-02-14T14:58:05.395Z,102289.94
2023-02-14T15:00:37.131Z,102288.03
2023-02-14T15:03:07.403Z,102287.97
2023-02-14T15:05:42.315Z,102296.06
2023-02-14T15:08:33.012Z,102289.03
2023-02-14T15:11:38.257Z,102292.66
2023-02-14T15:14:08.835Z,102280.13
2023-02-14T15:16:40.461Z,102275.81
2023-02-14T15:19:09.777Z,102279.75
2023-02-14T15:21:36.328Z,102284.84
2023-02-14T15:24:03.137Z,102280.72
2023-02-14T15:26:34.390Z,102279.66
2023-02-14T15:29:04.597Z,102274.75
2023-02-14T15:31:34.644Z,102281.97
2023-02-14T15:34:02.757Z,102281.53
2023-02-14T15:36:30.228Z,102281.63
2023-02-14T15:38:57.677Z,102277.88
2023-02-14T15:41:24.913Z,102284.28
2023-02-14T15:43:53.884Z,102286.78
2023-02-14T15:46:29.685Z,102279.00
2023-02-14T15:49:00.628Z,102274.00
2023-02-14T15:51:29.706Z,102273.19
2023-02-14T15:54:04.658Z,102275.44
2023-02-14T15:56:43.131Z,102267.50
2023-02-14T15:59:17.455Z,102268.69
2023-02-14T16:01:50.615Z,102257.06
2023-02-14T16:04:24.129Z,102265.47
2023-02-14T16:07:03.301Z,102270.34
2023-02-14T16:09:34.099Z,102268.19
2023-02-14T16:12:12.655Z,102268.00
2023-02-14T16:14:40.922Z,102270.38
2023-02-14T16:17:12.395Z,102269.81
2023-02-14T16:19:43.545Z,102267.66
2023-02-14T16:22:32.130Z,102271.75
2023-02-14T16:25:01.830Z,102269.91
2023-02-14T16:27:28.194Z,102272.84
2023-02-14T16:29:54.678Z,102271.78
2023-02-14T16:32:22.707Z,102278.06
2023-02-14T16:34:49.520Z,102271.78
2023-02-14T16:37:24.999Z,102273.63
2023-02-14T16:39:53.029Z,102276.34
2023-02-14T16:42:19.552Z,102283.78
2023-02-14T16:44:46.724Z,102281.19
2023-02-14T16:47:14.205Z,102284.09
2023-02-14T16:49:41.905Z,102286.34
2023-02-14T16:52:14.824Z,102280.13
2023-02-14T16:54:41.242Z,102281.31
2023-02-14T16:57:11.914Z,102286.19
2023-02-14T16:59:38.320Z,102290.00
2023-02-14T17:02:04.862Z,102281.94
2023-02-14T17:04:31.234Z,102288.44
2023-02-14T17:06:57.858Z,102288.69
2023-02-14T17:09:28.122Z,102290.53
2023-02-14T17:11:57.196Z,102292.50
2023-02-14T17:14:28.031Z,102291.41
2023-02-14T17:16:55.097Z,102285.63
2023-02-14T17:19:21.523Z,102288.22
2023-02-14T17:21:48.567Z,102291.06
2023-02-14T17:24:15.778Z,102294.63
2023-02-14T17:26:42.206Z,102294.56
2023-02-14T17:29:08.650Z,102298.34
2023-02-14T17:31:35.115Z,102299.22
2023-02-14T17:34:01.727Z,102295.13
2023-02-14T17:36:28.235Z,102296.78
2023-02-14T17:38:54.659Z,102298.56
2023-02-14T17:41:24.023Z,102295.97
2023-02-14T17:43:52.870Z,102299.19
2023-02-14T17:46:19.392Z,102293.34
2023-02-14T17:48:47.822Z,102300.72
2023-02-14T17:51:15.861Z,102296.00
2023-02-14T17:53:42.745Z,102292.47
2023-02-14T17:56:11.765Z,102295.16
2023-02-14T17:58:38.686Z,102290.00
2023-02-14T18:01:07.147Z,102294.25
2023-02-14T18:03:34.172Z,102297.78
2023-02-14T18:06:01.579Z,102301.09
2023-02-14T18:08:34.182Z,102303.38
2023-02-14T18:11:04.631Z,102303.91
2023-02-14T18:13:31.685Z,102297.69
2023-02-14T18:16:01.568Z,102305.50
2023-02-14T18:18:28.054Z,102304.56
2023-02-14T18:20:59.076Z,102302.06
2023-02-14T18:23:26.105Z,102301.31
2023-02-14T18:25:58.338Z,102302.03
2023-02-14T18:28:25.202Z,102302.25
2023-02-14T18:30:52.643Z,102298.00
2023-02-14T18:33:19.450Z,102299.22
2023-02-14T18:35:45.954Z,102294.72
2023-02-14T18:38:13.135Z,102293.34
2023-02-14T18:40:41.082Z,102298.31
2023-02-14T18:43:07.508Z,102294.88
2023-02-14T18:45:37.833Z,102295.97
2023-02-14T18:48:04.878Z,102293.19
2023-02-14T18:50:33.274Z,102288.81
2023-02-14T18:52:59.643Z,102291.56
2023-02-14T18:55:26.075Z,102281.44
2023-02-14T18:57:52.433Z,102287.53
2023-02-14T19:00:18.853Z,102293.06
2023-02-14T19:02:45.272Z,102283.66
2023-02-14T19:05:11.667Z,102281.94
2023-02-14T19:07:38.045Z,102277.19
2023-02-14T19:10:05.368Z,102275.84
2023-02-14T19:12:33.287Z,102269.09
2023-02-14T19:15:00.765Z,102269.22
2023-02-14T19:17:27.463Z,102268.72
2023-02-14T19:19:54.268Z,102268.53
2023-02-14T19:22:20.888Z,102269.06
2023-02-14T19:24:48.248Z,102261.19
2023-02-14T19:27:14.621Z,102275.91
2023-02-14T19:29:41.033Z,102267.97
2023-02-14T19:32:07.492Z,102266.53
2023-02-14T19:34:34.212Z,102276.47
2023-02-14T19:37:01.155Z,102278.25
2023-02-14T19:39:31.965Z,102274.22
2023-02-14T19:41:58.990Z,102273.13
2023-02-14T19:44:25.830Z,102270.94
2023-02-14T19:46:54.321Z,102268.72
2023-02-14T19:49:21.270Z,102274.94
2023-02-14T19:51:49.342Z,102276.06
2023-02-14T19:54:15.759Z,102274.09
2023-02-14T19:56:44.252Z,102266.56
2023-02-14T19:59:10.940Z,102273.72
2023-02-14T20:01:41.306Z,102270.63
2023-02-14T20:04:10.292Z,102261.75
2023-02-14T20:06:37.553Z,102258.66
2023-02-14T20:09:04.888Z,102259.00
2023-02-14T20:11:36.096Z,102260.34
2023-02-14T20:14:03.601Z,102248.22
2023-02-14T20:16:31.437Z,102250.44
2023-02-14T20:18:58.460Z,102256.84
2023-02-14T20:21:28.009Z,102252.31
2023-02-14T20:23:58.575Z,102256.03
2023-02-14T20:26:24.940Z,102252.72
2023-02-14T20:28:53.029Z,102249.41
2023-02-14T20:31:19.699Z,102250.88
2023-02-14T20:33:52.742Z,102245.78
2023-02-14T20:36:19.920Z,102244.09
2023-02-14T20:38:46.522Z,102243.00
2023-02-14T20:41:14.160Z,102238.44
2023-02-14T20:43:40.530Z,102236.03
2023-02-14T20:46:07.223Z,102235.63
2023-02-14T20:48:34.630Z,102235.47
2023-02-14T20:51:15.326Z,102233.97
2023-02-14T20:53:44.894Z,102235.75
2023-02-14T20:56:12.137Z,102235.75
2023-02-14T20:58:39.034Z,102245.28
2023-02-14T21:01:10.668Z,102237.97
2023-02-14T21:03:37.493Z,102231.38
2023-02-14T21:06:08.892Z,102236.53
2023-02-14T21:08:36.187Z,102241.25
2023-02-14T21:11:03.965Z,102234.13
2023-02-14T21:13:30.337Z,102232.13
2023-02-14T21:16:05.623Z,102236.09
2023-02-14T21:18:33.162Z,102232.09
2023-02-14T21:21:04.792Z,102235.75
2023-02-14T21:23:31.183Z,102231.03
2023-02-14T21:25:57.568Z,102237.44
2023-02-14T21:28:23.942Z,102234.38
2023-02-14T21:30:50.360Z,102238.03
2023-02-14T21:33:17.065Z,102234.72
2023-02-14T21:35:43.543Z,102236.53
2023-02-14T21:38:09.908Z,102240.16
2023-02-14T21:40:36.268Z,102236.16
2023-02-14T21:43:03.132Z,102225.38
2023-02-14T21:45:48.288Z,102233.19
2023-02-14T21:48:33.016Z,102242.66
2023-02-14T21:50:59.867Z,102236.25
2023-02-14T21:53:26.467Z,102232.38
2023-02-14T21:55:52.851Z,102237.78
2023-02-14T21:58:19.234Z,102237.41
2023-02-14T22:00:47.891Z,102233.88
2023-02-14T22:03:14.275Z,102233.88
2023-02-14T22:05:40.656Z,102230.38
2023-02-14T22:08:07.006Z,102226.00
2023-02-14T22:10:33.359Z,102226.00
2023-02-14T22:12:59.723Z,102222.66
2023-02-14T22:15:26.111Z,102229.09
2023-02-14T22:17:52.455Z,102229.13
2023-02-14T22:20:18.939Z,102223.09
2023-02-14T22:22:45.318Z,102228.69
2023-02-14T22:25:11.810Z,102225.03
2023-02-14T22:27:39.950Z,102226.78
2023-02-14T22:30:07.686Z,102221.66
2023-02-14T22:32:34.089Z,102232.63
2023-02-14T22:35:00.447Z,102222.50
2023-02-14T22:37:26.789Z,102218.94
2023-02-14T22:39:53.146Z,102221.06
2023-02-14T22:42:19.527Z,102217.78
2023-02-14T22:44:45.880Z,102213.00
2023-02-14T22:47:12.232Z,102213.84
2023-02-14T22:49:38.585Z,102207.19
2023-02-14T22:52:05.090Z,102209.34
2023-02-14T22:54:31.515Z,102207.38
2023-02-14T22:56:59.722Z,102207.22
2023-02-14T22:59:28.167Z,102206.63
2023-02-14T23:01:54.693Z,102208.44
2023-02-14T23:04:22.613Z,102203.75
2023-02-14T23:06:49.298Z,102207.56
2023-02-14T23:09:15.743Z,102204.47
2023-02-14T23:11:43.544Z,102200.03
2023-02-14T23:14:30.659Z,102202.22
2023-02-14T23:17:26.261Z,102197.59
2023-02-14T23:20:11.312Z,102206.31
2023-02-14T23:22:39.393Z,102206.31
2023-02-14T23:25:08.028Z,102208.41
2023-02-14T23:27:39.846Z,102212.84
2023-02-14T23:30:08.798Z,102210.09
2023-02-14T23:32:35.877Z,102213.31
2023-02-14T23:35:02.313Z,102210.31
2023-02-14T23:37:28.749Z,102212.50
2023-02-14T23:39:55.130Z,102207.53
2023-02-14T23:42:21.538Z,102212.31
2023-02-14T23:44:48.987Z,102208.44
2023-02-14T23:47:15.938Z,102209.44
2023-02-14T23:49:42.880Z,102202.22
2023-02-14T23:52:11.091Z,102203.81
2023-02-14T23:54:37.928Z,102209.97
2023-02-14T23:57:05.152Z,102205.25
2023-02-14T23:59:31.630Z,102202.19
